< < Back
Terminal Aerodrome Forecast


Current Version              Previous Versions:   1  2  3  4  5  6  7  8  9  

Terminal Aerodrome Forecast

448
FTUS44 KOHX 012328
TAFCSV
TAF
KCSV 012328Z 0200/0224 05004KT P6SM FEW250=

Latest METAR

849
SAUS70 KWBC 021400 RRH
MTRCSV
METAR KCSV 021353Z AUTO 06004KT 10SM CLR 23/16 A3007 RMK AO2 SLP160
T02330161


USA.gov is the U.S. government's official web portal to all federal, state and local government web resources and services.